createdAt,value
2018-10-16T00:00:06.085Z,64.43
2018-10-16T00:01:06.115Z,64.40
2018-10-16T00:02:06.078Z,64.40
2018-10-16T00:03:06.120Z,64.43
2018-10-16T00:04:06.049Z,64.32
2018-10-16T00:05:06.061Z,64.43
2018-10-16T00:06:06.080Z,64.22
2018-10-16T00:07:06.023Z,65.15
2018-10-16T00:08:06.230Z,65.05
2018-10-16T00:09:06.044Z,64.95
2018-10-16T00:10:05.999Z,64.98
2018-10-16T00:11:06.113Z,64.84
2018-10-16T00:12:33.725Z,65.25
2018-10-16T00:13:07.151Z,65.05
2018-10-16T00:14:05.939Z,64.74
2018-10-16T00:15:05.929Z,64.74
2018-10-16T00:16:05.940Z,64.84
2018-10-16T00:17:05.893Z,64.77
2018-10-16T00:18:05.948Z,64.98
2018-10-16T00:19:05.897Z,64.95
2018-10-16T00:20:05.873Z,65.08
2018-10-16T00:21:05.855Z,64.98
2018-10-16T00:22:05.864Z,64.87
2018-10-16T00:23:05.845Z,64.84
2018-10-16T00:24:05.872Z,64.84
2018-10-16T00:25:05.809Z,64.98
2018-10-16T00:26:05.798Z,64.95
2018-10-16T00:27:05.812Z,65.05
2018-10-16T00:28:05.781Z,64.74
2018-10-16T00:29:05.770Z,64.87
2018-10-16T00:30:05.795Z,64.87
2018-10-16T00:31:05.755Z,65.05
2018-10-16T00:32:05.733Z,65.08
2018-10-16T00:33:05.780Z,64.98
2018-10-16T00:34:05.758Z,64.87
2018-10-16T00:35:05.708Z,64.98
2018-10-16T00:36:05.698Z,64.87
2018-10-16T00:37:05.698Z,64.98
2018-10-16T00:38:05.681Z,64.74
2018-10-16T00:39:05.710Z,65.05
2018-10-16T00:40:05.655Z,65.08
2018-10-16T00:41:05.649Z,64.95
2018-10-16T00:42:05.650Z,64.84
2018-10-16T00:43:05.625Z,64.87
2018-10-16T00:44:05.614Z,64.95
2018-10-16T00:45:05.836Z,64.67
2018-10-16T00:46:05.592Z,64.98
2018-10-16T00:47:05.571Z,64.87
2018-10-16T00:48:05.557Z,65.08
2018-10-16T00:49:05.766Z,64.95
2018-10-16T00:50:05.567Z,64.87
2018-10-16T00:51:05.532Z,64.87
2018-10-16T00:52:05.515Z,64.98
2018-10-16T00:53:05.563Z,64.87
2018-10-16T00:54:05.501Z,64.36
2018-10-16T00:55:05.570Z,64.12
2018-10-16T00:56:05.594Z,65.28
2018-10-16T00:57:05.595Z,65.18
2018-10-16T00:58:05.621Z,64.87
2018-10-16T00:59:05.549Z,64.87
2018-10-16T01:00:05.435Z,64.87
2018-10-16T01:01:05.630Z,65.08
2018-10-16T01:02:05.397Z,64.95
2018-10-16T01:03:05.400Z,64.87
2018-10-16T01:04:05.400Z,64.87
2018-10-16T01:05:05.421Z,64.87
2018-10-16T01:06:05.547Z,65.08
2018-10-16T01:07:05.365Z,64.77
2018-10-16T01:08:05.330Z,64.98
2018-10-16T01:09:05.470Z,64.98
2018-10-16T01:10:05.330Z,64.87
2018-10-16T01:11:05.356Z,64.43
2018-10-16T01:12:05.316Z,63.50
2018-10-16T01:13:05.287Z,64.64
2018-10-16T01:14:05.275Z,63.81
2018-10-16T01:15:05.295Z,64.95
2018-10-16T01:16:05.252Z,64.56
2018-10-16T01:17:05.299Z,63.50
2018-10-16T01:18:05.268Z,63.60
2018-10-16T01:19:05.242Z,63.60
2018-10-16T01:20:05.205Z,64.02
2018-10-16T01:21:05.208Z,63.29
2018-10-16T01:22:05.206Z,63.43
2018-10-16T01:23:05.251Z,64.53
2018-10-16T01:24:05.174Z,64.25
2018-10-16T01:25:05.177Z,64.32
2018-10-16T01:26:05.141Z,64.98
2018-10-16T01:27:05.147Z,64.87
2018-10-16T01:28:05.127Z,65.18
2018-10-16T01:29:05.156Z,65.08
2018-10-16T01:30:05.158Z,64.98
2018-10-16T01:31:05.096Z,64.36
2018-10-16T01:32:05.122Z,64.22
2018-10-16T01:33:05.116Z,64.04
2018-10-16T01:34:05.059Z,63.74
2018-10-16T01:35:05.043Z,64.56
2018-10-16T01:36:05.054Z,64.56
2018-10-16T01:37:05.017Z,64.46
2018-10-16T01:38:05.023Z,65.08
2018-10-16T01:39:05.087Z,64.67
2018-10-16T01:40:05.009Z,64.87
2018-10-16T01:41:05.029Z,64.87
2018-10-16T01:42:05.700Z,65.08
2018-10-16T01:43:04.972Z,65.18
2018-10-16T01:44:05.184Z,64.98
2018-10-16T01:45:05.093Z,65.49
2018-10-16T01:46:05.110Z,65.49
2018-10-16T01:47:04.920Z,65.31
2018-10-16T01:48:04.905Z,65.94
2018-10-16T01:49:04.928Z,64.98
2018-10-16T01:50:05.024Z,64.87
2018-10-16T01:51:05.042Z,65.00
2018-10-16T01:52:04.870Z,64.77
2018-10-16T01:53:04.873Z,64.87
2018-10-16T01:54:04.878Z,64.77
2018-10-16T01:55:04.837Z,64.90
2018-10-16T01:56:04.812Z,64.77
2018-10-16T01:57:04.817Z,64.98
2018-10-16T01:58:05.689Z,64.77
2018-10-16T01:59:04.789Z,65.00
2018-10-16T02:00:04.819Z,65.11
2018-10-16T02:01:04.766Z,64.77
2018-10-16T02:02:04.764Z,65.00
2018-10-16T02:03:04.776Z,65.00
2018-10-16T02:04:04.783Z,65.42
2018-10-16T02:05:04.722Z,65.00
2018-10-16T02:06:04.722Z,64.90
2018-10-16T02:07:04.698Z,65.52
2018-10-16T02:08:04.683Z,65.52
2018-10-16T02:09:04.687Z,65.34
2018-10-16T02:10:04.705Z,65.45
2018-10-16T02:11:04.647Z,66.69
2018-10-16T02:12:04.653Z,66.48
2018-10-16T02:13:04.616Z,66.61
2018-10-16T02:14:04.637Z,66.51
2018-10-16T02:15:04.656Z,66.48
2018-10-16T02:16:04.588Z,66.61
2018-10-16T02:17:04.605Z,66.72
2018-10-16T02:18:04.594Z,66.72
2018-10-16T02:19:04.620Z,65.69
2018-10-16T02:20:04.591Z,65.45
2018-10-16T02:21:04.545Z,65.45
2018-10-16T02:22:04.527Z,65.55
2018-10-16T02:23:04.740Z,63.97
2018-10-16T02:24:04.501Z,63.84
2018-10-16T02:25:04.642Z,64.70
2018-10-16T02:26:04.753Z,64.28
2018-10-16T02:27:04.486Z,64.70
2018-10-16T02:28:04.667Z,64.49
2018-10-16T02:29:04.504Z,63.87
2018-10-16T02:30:04.529Z,63.97
2018-10-16T02:31:04.458Z,63.46
2018-10-16T02:32:04.591Z,64.49
2018-10-16T02:33:04.433Z,64.49
2018-10-16T02:34:04.403Z,64.42
2018-10-16T02:35:04.428Z,64.62
2018-10-16T02:36:04.421Z,64.52
2018-10-16T02:37:04.512Z,64.59
2018-10-16T02:38:04.356Z,64.62
2018-10-16T02:39:04.350Z,64.42
2018-10-16T02:40:04.378Z,64.52
2018-10-16T02:41:04.321Z,64.83
2018-10-16T02:42:04.321Z,65.45
2018-10-16T02:43:04.318Z,65.45
2018-10-16T02:44:04.286Z,65.37
2018-10-16T02:45:04.325Z,65.48
2018-10-16T02:46:04.463Z,65.14
2018-10-16T02:47:04.268Z,65.48
2018-10-16T02:48:04.387Z,66.00
2018-10-16T02:49:04.381Z,65.48
2018-10-16T02:50:04.276Z,64.96
2018-10-16T02:51:04.217Z,65.37
2018-10-16T02:52:04.251Z,65.27
2018-10-16T02:53:04.223Z,64.86
2018-10-16T02:54:04.198Z,65.06
2018-10-16T02:55:04.174Z,64.86
2018-10-16T02:56:04.151Z,65.48
2018-10-16T02:57:04.161Z,66.13
2018-10-16T02:58:04.170Z,65.79
2018-10-16T02:59:04.125Z,65.89
2018-10-16T03:00:04.114Z,65.79
2018-10-16T03:01:04.112Z,65.79
2018-10-16T03:02:04.122Z,65.37
2018-10-16T03:03:04.096Z,65.48
2018-10-16T03:04:04.297Z,65.37
2018-10-16T03:05:04.082Z,65.06
2018-10-16T03:06:04.114Z,65.48
2018-10-16T03:07:04.046Z,65.48
2018-10-16T03:08:04.204Z,65.34
2018-10-16T03:09:04.030Z,65.58
2018-10-16T03:10:04.009Z,65.79
2018-10-16T03:11:04.235Z,66.51
2018-10-16T03:12:03.996Z,66.72
2018-10-16T03:13:03.974Z,66.61
2018-10-16T03:14:03.969Z,66.72
2018-10-16T03:15:03.956Z,65.89
2018-10-16T03:16:03.936Z,65.79
2018-10-16T03:17:03.977Z,65.69
2018-10-16T03:18:03.927Z,65.69
2018-10-16T03:19:03.910Z,66.00
2018-10-16T03:20:03.907Z,66.00
2018-10-16T03:21:03.901Z,65.79
2018-10-16T03:22:03.879Z,65.48
2018-10-16T03:23:04.917Z,65.37
2018-10-16T03:24:03.858Z,65.79
2018-10-16T03:25:03.854Z,66.10
2018-10-16T03:26:03.836Z,66.93
2018-10-16T03:27:03.849Z,66.72
2018-10-16T03:28:03.820Z,66.96
2018-10-16T03:29:03.860Z,67.27
2018-10-16T03:30:03.817Z,67.71
2018-10-16T03:31:03.939Z,68.30
2018-10-16T03:32:03.835Z,68.12
2018-10-16T03:33:03.765Z,68.02
2018-10-16T03:34:03.762Z,67.68
2018-10-16T03:35:03.743Z,66.96
2018-10-16T03:36:03.716Z,66.20
2018-10-16T03:37:03.738Z,64.96
2018-10-16T03:38:03.739Z,66.10
2018-10-16T03:39:03.707Z,66.61
2018-10-16T03:40:03.705Z,66.51
2018-10-16T03:41:03.668Z,65.89
2018-10-16T03:42:03.652Z,65.48
2018-10-16T03:43:03.652Z,65.79
2018-10-16T03:44:03.691Z,66.72
2018-10-16T03:45:03.629Z,66.30
2018-10-16T03:46:03.619Z,66.64
2018-10-16T03:47:03.634Z,66.54
2018-10-16T03:48:03.585Z,66.64
2018-10-16T03:49:03.645Z,66.64
2018-10-16T03:50:03.629Z,66.41
2018-10-16T03:51:03.553Z,65.58
2018-10-16T03:52:03.543Z,65.89
2018-10-16T03:53:03.559Z,65.58
2018-10-16T03:54:03.523Z,64.96
2018-10-16T03:55:03.533Z,65.03
2018-10-16T03:56:03.540Z,65.48
2018-10-16T03:57:03.537Z,66.10
2018-10-16T03:58:03.500Z,66.10
2018-10-16T03:59:03.482Z,65.79
2018-10-16T04:00:03.455Z,65.79
2018-10-16T04:01:03.487Z,65.79
2018-10-16T04:02:03.435Z,65.69
2018-10-16T04:03:03.435Z,67.06
2018-10-16T04:04:03.427Z,66.33
2018-10-16T04:05:03.407Z,66.57
2018-10-16T04:06:03.454Z,67.40
2018-10-16T04:07:03.478Z,66.88
2018-10-16T04:08:03.395Z,67.95
2018-10-16T04:09:03.603Z,67.82
2018-10-16T04:10:03.371Z,68.02
2018-10-16T04:11:03.353Z,68.54
2018-10-16T04:12:21.938Z,67.95
2018-10-16T04:13:04.358Z,66.57
2018-10-16T04:14:03.631Z,66.57
2018-10-16T04:15:03.299Z,66.57
2018-10-16T04:16:03.275Z,66.67
2018-10-16T04:17:03.296Z,66.47
2018-10-16T04:18:03.283Z,66.57
2018-10-16T04:19:03.260Z,66.47
2018-10-16T04:20:03.300Z,66.99
2018-10-16T04:21:03.237Z,65.61
2018-10-16T04:22:03.364Z,65.20
2018-10-16T04:23:03.218Z,65.30
2018-10-16T04:24:03.207Z,64.99
2018-10-16T04:25:03.193Z,65.20
2018-10-16T04:26:03.212Z,66.03
2018-10-16T04:27:03.156Z,66.16
2018-10-16T04:28:03.165Z,66.67
2018-10-16T04:29:03.196Z,67.09
2018-10-16T04:30:03.192Z,66.88
2018-10-16T04:31:03.110Z,66.47
2018-10-16T04:32:03.116Z,66.47
2018-10-16T04:33:03.103Z,66.47
2018-10-16T04:34:03.099Z,66.67
2018-10-16T04:35:03.266Z,67.40
2018-10-16T04:36:03.122Z,66.67
2018-10-16T04:37:03.059Z,66.67
2018-10-16T04:38:03.050Z,67.61
2018-10-16T04:39:03.162Z,66.99
2018-10-16T04:40:03.091Z,66.67
2018-10-16T04:41:03.179Z,67.61
2018-10-16T04:42:03.192Z,67.85
2018-10-16T04:43:02.993Z,67.71
2018-10-16T04:44:02.982Z,67.64
2018-10-16T04:45:02.972Z,68.26
2018-10-16T04:46:03.009Z,68.67
2018-10-16T04:47:02.943Z,67.54
2018-10-16T04:48:02.928Z,67.74
2018-10-16T04:49:02.949Z,66.81
2018-10-16T04:50:02.904Z,67.64
2018-10-16T04:51:02.916Z,67.71
2018-10-16T04:52:02.951Z,68.05
2018-10-16T04:53:02.886Z,67.95
2018-10-16T04:54:02.876Z,67.85
2018-10-16T04:55:02.934Z,67.95
2018-10-16T04:56:02.847Z,68.77
2018-10-16T04:57:02.879Z,68.29
2018-10-16T04:58:02.842Z,68.26
2018-10-16T04:59:02.822Z,68.57
2018-10-16T05:00:02.817Z,67.98
2018-10-16T05:01:02.786Z,68.70
2018-10-16T05:02:02.861Z,68.29
2018-10-16T05:03:02.776Z,68.29
2018-10-16T05:04:02.833Z,67.33
2018-10-16T05:05:02.769Z,67.74
2018-10-16T05:06:02.740Z,66.60
2018-10-16T05:07:02.760Z,66.71
2018-10-16T05:08:02.772Z,66.71
2018-10-16T05:09:02.858Z,66.81
2018-10-16T05:10:02.708Z,67.33
2018-10-16T05:11:02.681Z,66.71
2018-10-16T05:12:02.666Z,66.50
2018-10-16T05:13:02.743Z,67.54
2018-10-16T05:14:02.728Z,67.12
2018-10-16T05:15:02.639Z,67.02
2018-10-16T05:16:02.669Z,66.91
2018-10-16T05:17:02.841Z,67.12
2018-10-16T05:18:02.613Z,66.71
2018-10-16T05:19:02.688Z,66.60
2018-10-16T05:20:02.650Z,67.12
2018-10-16T05:21:02.573Z,67.54
2018-10-16T05:22:02.644Z,68.77
2018-10-16T05:23:02.604Z,68.46
2018-10-16T05:24:02.747Z,67.88
2018-10-16T05:25:02.544Z,67.95
2018-10-16T05:26:02.568Z,67.64
2018-10-16T05:27:02.577Z,67.95
2018-10-16T05:28:02.693Z,68.26
2018-10-16T05:29:02.481Z,67.64
2018-10-16T05:30:02.489Z,67.95
2018-10-16T05:31:02.594Z,67.95
2018-10-16T05:32:02.448Z,67.98
2018-10-16T05:33:02.457Z,68.60
2018-10-16T05:34:02.453Z,69.22
2018-10-16T05:35:02.420Z,68.60
2018-10-16T05:36:02.458Z,68.60
2018-10-16T05:37:02.738Z,68.91
2018-10-16T05:38:02.397Z,69.22
2018-10-16T05:39:02.437Z,69.12
2018-10-16T05:40:02.583Z,68.70
2018-10-16T05:41:05.669Z,68.91
2018-10-16T05:42:02.368Z,68.98
2018-10-16T05:43:02.365Z,68.77
2018-10-16T05:44:02.354Z,68.36
2018-10-16T05:45:02.328Z,68.67
2018-10-16T05:46:02.482Z,67.71
2018-10-16T05:47:02.358Z,68.67
2018-10-16T05:48:02.326Z,67.85
2018-10-16T05:49:02.262Z,68.64
2018-10-16T05:50:02.268Z,67.61
2018-10-16T05:51:02.585Z,68.33
2018-10-16T05:52:02.275Z,67.82
2018-10-16T05:53:02.278Z,67.91
2018-10-16T05:54:02.297Z,68.12
2018-10-16T05:55:02.208Z,67.09
2018-10-16T05:56:02.241Z,66.47
2018-10-16T05:57:02.467Z,64.89
2018-10-16T05:58:02.224Z,66.00
2018-10-16T05:59:02.203Z,66.54
2018-10-16T06:00:02.176Z,66.54
2018-10-16T06:01:02.154Z,66.54
2018-10-16T06:02:02.141Z,66.85
2018-10-16T06:03:02.175Z,67.37
2018-10-16T06:04:02.108Z,66.85
2018-10-16T06:05:02.100Z,65.89
2018-10-16T06:06:02.122Z,66.64
2018-10-16T06:07:02.091Z,66.33
2018-10-16T06:08:02.061Z,66.64
2018-10-16T06:09:02.088Z,66.82
2018-10-16T06:10:02.072Z,66.61
2018-10-16T06:11:02.018Z,66.20
2018-10-16T06:12:02.031Z,66.41
2018-10-16T06:13:02.022Z,66.51
2018-10-16T06:14:02.003Z,66.96
2018-10-16T06:15:02.021Z,66.96
2018-10-16T06:16:01.980Z,67.30
2018-10-16T06:17:01.964Z,67.19
2018-10-16T06:18:01.944Z,66.78
2018-10-16T06:19:01.944Z,65.20
2018-10-16T06:20:01.936Z,64.99
2018-10-16T06:21:02.113Z,64.68
2018-10-16T06:22:01.907Z,63.75
2018-10-16T06:23:01.909Z,63.51
2018-10-16T06:24:01.903Z,64.76
2018-10-16T06:25:01.919Z,63.93
2018-10-16T06:26:01.873Z,65.17
2018-10-16T06:27:01.928Z,65.06
2018-10-16T06:28:01.872Z,65.06
2018-10-16T06:29:01.830Z,64.55
2018-10-16T06:30:01.833Z,63.93
2018-10-16T06:31:01.820Z,64.42
2018-10-16T06:32:01.800Z,63.82
2018-10-16T06:33:01.844Z,65.14
2018-10-16T06:34:01.780Z,63.79
2018-10-16T06:35:01.765Z,63.90
2018-10-16T06:36:01.766Z,64.93
2018-10-16T06:37:01.760Z,64.42
2018-10-16T06:38:01.735Z,65.97
2018-10-16T06:39:01.755Z,66.79
2018-10-16T06:40:01.720Z,66.48
2018-10-16T06:41:01.931Z,66.58
2018-10-16T06:42:01.687Z,68.24
2018-10-16T06:43:01.686Z,67.79
2018-10-16T06:44:01.732Z,66.69
2018-10-16T06:45:01.669Z,66.24
2018-10-16T06:46:01.633Z,66.45
2018-10-16T06:47:01.650Z,66.55
2018-10-16T06:48:01.775Z,66.45
2018-10-16T06:49:01.642Z,64.56
2018-10-16T06:50:01.594Z,62.50
2018-10-16T06:51:01.589Z,63.43
2018-10-16T06:52:01.590Z,63.50
2018-10-16T06:53:01.580Z,64.53
2018-10-16T06:54:01.560Z,66.49
2018-10-16T06:55:01.658Z,64.64
2018-10-16T06:56:01.592Z,65.05
2018-10-16T06:57:01.521Z,64.12
2018-10-16T06:58:01.515Z,65.59
2018-10-16T06:59:01.500Z,64.74
2018-10-16T07:00:01.499Z,64.87
2018-10-16T07:01:01.528Z,65.39
2018-10-16T07:02:01.463Z,65.28
2018-10-16T07:03:01.462Z,65.56
2018-10-16T07:04:01.439Z,63.40
2018-10-16T07:05:01.431Z,64.84
2018-10-16T07:06:01.437Z,65.98
2018-10-16T07:07:01.544Z,64.74
2018-10-16T07:08:01.398Z,64.84
2018-10-16T07:09:01.382Z,65.05
2018-10-16T07:10:01.398Z,65.36
2018-10-16T07:11:01.366Z,65.05
2018-10-16T07:12:01.373Z,64.61
2018-10-16T07:13:01.380Z,65.12
2018-10-16T07:14:01.334Z,64.81
2018-10-16T07:15:01.473Z,66.25
2018-10-16T07:16:01.340Z,66.67
2018-10-16T07:17:01.299Z,67.87
2018-10-16T07:18:01.327Z,64.92
2018-10-16T07:19:01.297Z,66.74
2018-10-16T07:20:01.258Z,63.47
2018-10-16T07:21:01.287Z,64.40
2018-10-16T07:22:01.254Z,64.99
2018-10-16T07:23:01.316Z,65.09
2018-10-16T07:24:01.396Z,64.68
2018-10-16T07:25:01.228Z,65.19
2018-10-16T07:26:01.219Z,65.06
2018-10-16T07:27:01.206Z,64.75
2018-10-16T07:28:01.238Z,65.06
2018-10-16T07:29:01.233Z,62.49
2018-10-16T07:30:01.226Z,61.98
2018-10-16T07:31:01.139Z,62.93
2018-10-16T07:32:01.154Z,62.00
2018-10-16T07:33:01.143Z,61.66
2018-10-16T07:34:01.164Z,63.72
2018-10-16T07:35:02.066Z,64.83
2018-10-16T07:36:01.103Z,63.35
2018-10-16T07:37:01.076Z,61.99
2018-10-16T07:38:01.256Z,61.27
2018-10-16T07:39:01.187Z,59.39
2018-10-16T07:40:01.090Z,60.31
2018-10-16T07:41:01.044Z,61.35
2018-10-16T07:42:01.074Z,61.55
2018-10-16T07:43:01.145Z,60.96
2018-10-16T07:44:01.192Z,61.65
2018-10-16T07:45:08.528Z,64.09
2018-10-16T07:46:00.979Z,63.54
2018-10-16T07:47:00.979Z,63.44
2018-10-16T07:48:00.993Z,62.73
2018-10-16T07:49:00.950Z,63.24
2018-10-16T07:50:00.936Z,61.90
2018-10-16T07:51:00.929Z,57.79
2018-10-16T07:52:00.919Z,59.03
2018-10-16T07:53:00.903Z,60.29
2018-10-16T07:54:00.938Z,61.04
2018-10-16T07:55:00.878Z,61.32
2018-10-16T07:56:00.882Z,61.96
2018-10-16T07:57:00.915Z,60.63
2018-10-16T07:58:00.843Z,58.87
2018-10-16T07:59:00.841Z,58.23
2018-10-16T08:00:00.876Z,57.28
2018-10-16T08:01:00.830Z,57.79
2018-10-16T08:02:00.813Z,57.26
2018-10-16T08:03:00.851Z,55.51
2018-10-16T08:04:00.827Z,58.56
2018-10-16T08:05:00.766Z,56.30
2018-10-16T08:06:00.762Z,57.23
2018-10-16T08:07:00.761Z,57.23
2018-10-16T08:08:00.742Z,56.90
2018-10-16T08:09:00.750Z,56.46
2018-10-16T08:10:00.777Z,55.62
2018-10-16T08:11:00.747Z,57.35
2018-10-16T08:12:00.714Z,55.41
2018-10-16T08:13:00.703Z,54.87
2018-10-16T08:14:00.677Z,53.11
2018-10-16T08:15:00.659Z,53.52
2018-10-16T08:16:00.714Z,52.57
2018-10-16T08:17:00.674Z,54.41
2018-10-16T08:18:00.624Z,53.00
2018-10-16T08:19:00.622Z,51.16
2018-10-16T08:20:00.661Z,51.98
2018-10-16T08:21:00.659Z,49.30
2018-10-16T08:22:00.578Z,50.40
2018-10-16T08:23:00.566Z,51.14
2018-10-16T08:24:00.555Z,51.54
2018-10-16T08:25:00.574Z,52.16
2018-10-16T08:26:00.564Z,50.42
2018-10-16T08:27:00.642Z,53.19
2018-10-16T08:28:00.533Z,51.83
2018-10-16T08:29:00.519Z,52.24
2018-10-16T08:30:00.604Z,53.06
2018-10-16T08:31:00.501Z,49.60
2018-10-16T08:32:00.484Z,51.21
2018-10-16T08:33:00.537Z,51.21
2018-10-16T08:34:00.471Z,50.48
2018-10-16T08:35:00.444Z,50.37
2018-10-16T08:36:00.600Z,50.35
2018-10-16T08:37:00.672Z,48.94
2018-10-16T08:38:00.455Z,51.09
2018-10-16T08:39:00.398Z,50.37
2018-10-16T08:40:00.412Z,49.35
2018-10-16T08:41:00.386Z,49.89
2018-10-16T08:42:00.480Z,51.29
2018-10-16T08:43:00.366Z,52.01
2018-10-16T08:44:00.399Z,53.36
2018-10-16T08:45:00.393Z,52.62
2018-10-16T08:46:00.331Z,52.14
2018-10-16T08:47:00.316Z,52.75
2018-10-16T08:48:00.298Z,51.01
2018-10-16T08:49:00.309Z,52.24
2018-10-16T08:50:00.367Z,53.57
2018-10-16T08:51:00.282Z,52.75
2018-10-16T08:52:00.272Z,54.69
2018-10-16T08:53:00.263Z,52.01
2018-10-16T08:54:00.297Z,50.09
2018-10-16T08:55:00.309Z,51.32
2018-10-16T08:56:00.220Z,51.19
2018-10-16T08:57:00.199Z,49.87
2018-10-16T08:58:00.233Z,50.45
2018-10-16T08:59:00.257Z,50.66
2018-10-16T09:00:00.194Z,51.57
2018-10-16T09:01:00.167Z,50.02
2018-10-16T09:02:00.169Z,51.45
2018-10-16T09:03:00.146Z,48.80
2018-10-16T09:04:00.131Z,51.65
2018-10-16T09:05:00.181Z,49.00
2018-10-16T09:06:00.120Z,49.41
2018-10-16T09:07:00.102Z,50.41
2018-10-16T09:08:00.083Z,48.47
2018-10-16T09:09:00.065Z,48.83
2018-10-16T09:10:00.057Z,48.91
2018-10-16T09:11:00.094Z,48.10
2018-10-16T09:12:00.036Z,47.28
2018-10-16T09:13:00.021Z,49.11
2018-10-16T09:14:00.187Z,48.58
2018-10-16T09:14:59.996Z,48.66
2018-10-16T09:16:00.031Z,47.24
2018-10-16T09:16:59.976Z,47.01
2018-10-16T09:17:59.971Z,46.81
2018-10-16T09:18:59.944Z,46.89
2018-10-16T09:19:59.942Z,47.11
2018-10-16T09:20:59.928Z,45.81
2018-10-16T09:21:59.965Z,47.11
2018-10-16T09:22:59.907Z,48.59
2018-10-16T09:23:59.918Z,47.05
2018-10-16T09:24:59.942Z,45.54
2018-10-16T09:25:59.915Z,45.83
2018-10-16T09:26:59.864Z,45.62
2018-10-16T09:27:59.859Z,47.94
2018-10-16T09:28:59.840Z,45.50
2018-10-16T09:29:59.842Z,48.14
2018-10-16T09:30:59.844Z,46.62
2018-10-16T09:31:59.854Z,42.77
2018-10-16T09:32:59.791Z,45.40
2018-10-16T09:33:59.787Z,44.59
2018-10-16T09:34:59.777Z,45.68
2018-10-16T09:35:59.783Z,45.37
2018-10-16T09:36:59.798Z,44.54
2018-10-16T09:37:59.810Z,44.56
2018-10-16T09:38:59.743Z,44.95
2018-10-16T09:39:59.717Z,44.95
2018-10-16T09:40:59.725Z,42.90
2018-10-16T09:41:59.741Z,44.62
2018-10-16T09:42:59.701Z,45.15
2018-10-16T09:43:59.682Z,42.92
2018-10-16T09:44:59.671Z,43.73
2018-10-16T09:45:59.671Z,42.90
2018-10-16T09:46:59.658Z,44.10
2018-10-16T09:47:59.677Z,41.40
2018-10-16T09:48:59.616Z,41.48
2018-10-16T09:49:59.612Z,43.30
2018-10-16T09:50:59.614Z,43.51
2018-10-16T09:51:59.650Z,41.38
2018-10-16T09:52:59.625Z,42.69
2018-10-16T09:53:59.563Z,41.16
2018-10-16T09:54:59.562Z,41.46
2018-10-16T09:55:59.553Z,44.40
2018-10-16T09:56:59.567Z,42.88
2018-10-16T09:57:59.568Z,40.73
2018-10-16T09:58:59.513Z,40.22
2018-10-16T09:59:59.491Z,41.44
2018-10-16T10:00:59.584Z,41.03
2018-10-16T10:01:59.490Z,40.33
2018-10-16T10:02:59.465Z,41.36
2018-10-16T10:03:59.496Z,40.45
2018-10-16T10:04:59.441Z,41.14
2018-10-16T10:05:59.434Z,42.74
2018-10-16T10:06:59.461Z,41.00
2018-10-16T10:07:59.413Z,40.81
2018-10-16T10:08:59.415Z,41.93
2018-10-16T10:09:59.387Z,40.49
2018-10-16T10:10:59.451Z,41.83
2018-10-16T10:12:16.985Z,42.25
2018-10-16T10:13:00.358Z,42.25
2018-10-16T10:13:59.340Z,43.26
2018-10-16T10:14:59.355Z,42.74
2018-10-16T10:15:59.363Z,44.66
2018-10-16T10:16:59.315Z,43.63
2018-10-16T10:17:59.347Z,42.35
2018-10-16T10:18:59.285Z,42.33
2018-10-16T10:19:59.277Z,42.88
2018-10-16T10:20:59.271Z,43.77
2018-10-16T10:21:59.258Z,41.74
2018-10-16T10:22:59.249Z,44.36
2018-10-16T10:23:59.276Z,43.44
2018-10-16T10:24:59.274Z,44.38
2018-10-16T10:25:59.264Z,43.44
2018-10-16T10:26:59.216Z,42.92
2018-10-16T10:27:59.184Z,43.51
2018-10-16T10:28:59.181Z,43.23
2018-10-16T10:29:59.174Z,41.91
2018-10-16T10:30:59.161Z,41.72
2018-10-16T10:31:59.183Z,41.72
2018-10-16T10:32:59.143Z,43.44
2018-10-16T10:33:59.116Z,44.62
2018-10-16T10:34:59.130Z,42.69
2018-10-16T10:35:59.097Z,43.32
2018-10-16T10:36:59.136Z,41.09
2018-10-16T10:37:59.083Z,43.99
2018-10-16T10:38:59.066Z,39.84
2018-10-16T10:39:59.068Z,42.80
2018-10-16T10:40:59.048Z,41.80
2018-10-16T10:41:59.065Z,42.31
2018-10-16T10:42:59.075Z,41.72
2018-10-16T10:43:59.075Z,41.20
2018-10-16T10:44:59.045Z,41.80
2018-10-16T10:45:58.993Z,42.01
2018-10-16T10:46:59.030Z,42.61
2018-10-16T10:47:58.983Z,41.50
2018-10-16T10:48:58.966Z,40.59
2018-10-16T10:49:59.149Z,41.30
2018-10-16T10:50:59.208Z,41.20
2018-10-16T10:51:58.938Z,41.50
2018-10-16T10:52:58.962Z,42.41
2018-10-16T10:53:58.920Z,40.88
2018-10-16T10:54:58.912Z,41.55
2018-10-16T10:55:58.884Z,39.73
2018-10-16T10:56:59.114Z,41.28
2018-10-16T10:57:59.031Z,40.15
2018-10-16T10:58:58.892Z,42.21
2018-10-16T10:59:58.850Z,41.58
2018-10-16T11:00:58.830Z,41.26
2018-10-16T11:01:58.866Z,42.47
2018-10-16T11:02:58.923Z,40.45
2018-10-16T11:03:58.787Z,40.95
2018-10-16T11:04:58.778Z,41.26
2018-10-16T11:05:58.768Z,40.55
2018-10-16T11:06:58.795Z,40.66
2018-10-16T11:07:58.767Z,42.60
2018-10-16T11:08:58.801Z,40.91
2018-10-16T11:09:58.733Z,40.39
2018-10-16T11:10:58.718Z,42.11
2018-10-16T11:11:58.718Z,39.46
2018-10-16T11:12:58.740Z,40.27
2018-10-16T11:13:58.677Z,41.49
2018-10-16T11:14:58.706Z,40.03
2018-10-16T11:15:58.659Z,39.02
2018-10-16T11:16:58.667Z,39.22
2018-10-16T11:17:58.655Z,37.90
2018-10-16T11:18:58.687Z,36.39
2018-10-16T11:19:58.618Z,37.60
2018-10-16T11:20:58.643Z,38.33
2018-10-16T11:21:58.619Z,36.99
2018-10-16T11:22:58.587Z,38.23
2018-10-16T11:23:58.579Z,39.34
2018-10-16T11:24:58.619Z,37.52
2018-10-16T11:25:58.570Z,36.90
2018-10-16T11:26:58.725Z,37.92
2018-10-16T11:27:58.540Z,37.32
2018-10-16T11:28:58.516Z,37.82
2018-10-16T11:29:58.571Z,38.35
2018-10-16T11:30:58.539Z,38.14
2018-10-16T11:31:58.580Z,37.74
2018-10-16T11:32:58.498Z,38.35
2018-10-16T11:33:58.463Z,38.43
2018-10-16T11:34:58.448Z,36.49
2018-10-16T11:35:58.449Z,37.92
2018-10-16T11:36:58.535Z,38.43
2018-10-16T11:37:58.443Z,38.13
2018-10-16T11:38:58.440Z,38.23
2018-10-16T11:39:58.458Z,40.01
2018-10-16T11:40:58.398Z,36.98
2018-10-16T11:41:58.382Z,37.60
2018-10-16T11:42:58.381Z,38.82
2018-10-16T11:43:58.367Z,40.45
2018-10-16T11:44:58.375Z,39.93
2018-10-16T11:45:58.387Z,37.60
2018-10-16T11:46:58.338Z,38.84
2018-10-16T11:47:58.316Z,39.12
2018-10-16T11:48:58.302Z,37.90
2018-10-16T11:49:58.339Z,38.23
2018-10-16T11:50:58.290Z,38.33
2018-10-16T11:51:58.339Z,39.24
2018-10-16T11:52:58.274Z,38.63
2018-10-16T11:53:58.252Z,38.11
2018-10-16T11:54:58.244Z,38.31
2018-10-16T11:55:58.256Z,38.43
2018-10-16T11:56:58.286Z,36.59
2018-10-16T11:57:58.219Z,39.44
2018-10-16T11:58:58.207Z,39.91
2018-10-16T11:59:58.193Z,37.60
2018-10-16T12:00:58.204Z,37.70
2018-10-16T12:01:58.183Z,39.73
2018-10-16T12:02:58.237Z,39.91
2018-10-16T12:03:58.142Z,37.60
2018-10-16T12:04:58.149Z,39.00
2018-10-16T12:05:58.203Z,37.48
2018-10-16T12:06:58.141Z,38.98
2018-10-16T12:07:58.123Z,37.46
2018-10-16T12:08:58.140Z,38.11
2018-10-16T12:09:58.088Z,38.29
2018-10-16T12:10:58.103Z,36.77
2018-10-16T12:11:58.071Z,37.70
2018-10-16T12:12:58.103Z,38.82
2018-10-16T12:13:58.156Z,38.70
2018-10-16T12:14:58.079Z,38.07
2018-10-16T12:15:58.032Z,39.08
2018-10-16T12:16:58.000Z,37.97
2018-10-16T12:17:57.988Z,36.86
2018-10-16T12:18:58.058Z,37.90
2018-10-16T12:19:58.072Z,39.20
2018-10-16T12:20:58.034Z,38.19
2018-10-16T12:21:57.949Z,39.02
2018-10-16T12:22:57.953Z,38.51
2018-10-16T12:23:58.011Z,37.89
2018-10-16T12:24:57.949Z,37.68
2018-10-16T12:25:57.899Z,38.59
2018-10-16T12:26:57.960Z,37.55
2018-10-16T12:27:57.874Z,37.33
2018-10-16T12:28:57.916Z,36.84
2018-10-16T12:29:57.878Z,37.66
2018-10-16T12:30:57.875Z,40.09
2018-10-16T12:31:57.851Z,38.24
2018-10-16T12:32:57.943Z,37.04
2018-10-16T12:33:57.831Z,37.04
2018-10-16T12:34:57.811Z,38.57
2018-10-16T12:35:57.808Z,38.29
2018-10-16T12:36:57.816Z,38.07
2018-10-16T12:37:57.784Z,39.18
2018-10-16T12:38:57.845Z,37.99
2018-10-16T12:39:57.775Z,37.60
2018-10-16T12:40:57.807Z,37.20
2018-10-16T12:41:57.799Z,39.22
2018-10-16T12:42:57.856Z,39.08
2018-10-16T12:43:57.765Z,37.70
2018-10-16T12:44:57.710Z,37.81
2018-10-16T12:45:57.761Z,37.81
2018-10-16T12:46:57.747Z,39.20
2018-10-16T12:47:57.723Z,37.38
2018-10-16T12:48:57.651Z,39.40
2018-10-16T12:49:57.642Z,39.30
2018-10-16T12:50:57.669Z,39.59
2018-10-16T12:51:57.685Z,37.97